createdAt,value
2023-02-19T20:52:04.805Z,100817.90
2023-02-19T20:54:37.263Z,100816.22
2023-02-19T20:57:09.024Z,100833.32
2023-02-19T20:59:43.532Z,100832.39
2023-02-19T21:02:20.170Z,100822.39
2023-02-19T21:04:50.658Z,100826.67
2023-02-19T21:07:22.403Z,100815.83
2023-02-19T21:09:53.263Z,100819.66
2023-02-19T21:12:25.019Z,100827.09
2023-02-19T21:14:55.496Z,100835.21
2023-02-19T21:17:26.056Z,100840.27
2023-02-19T21:19:56.903Z,100841.23
2023-02-19T21:22:27.548Z,100849.10
2023-02-19T21:24:58.053Z,100840.59
2023-02-19T21:27:28.580Z,100838.66
2023-02-19T21:30:00.123Z,100849.70
2023-02-19T21:32:31.123Z,100850.66
2023-02-19T21:35:02.741Z,100850.02
2023-02-19T21:37:33.431Z,100870.98
2023-02-19T21:40:03.952Z,100868.89
2023-02-19T21:42:35.671Z,100859.05
2023-02-19T21:45:06.626Z,100862.75
2023-02-19T21:47:37.130Z,100859.39
2023-02-19T21:50:08.917Z,100853.11
2023-02-19T21:52:39.386Z,100857.66
2023-02-19T21:55:09.946Z,100857.44
2023-02-19T21:57:40.628Z,100883.82
2023-02-19T22:00:12.116Z,100863.05
2023-02-19T22:02:45.847Z,100864.72
2023-02-19T22:05:16.579Z,100864.31
2023-02-19T22:07:48.677Z,100880.20
2023-02-19T22:10:20.512Z,100858.96
2023-02-19T22:12:50.993Z,100856.89
2023-02-19T22:15:26.244Z,100861.08
2023-02-19T22:18:00.714Z,100858.64
2023-02-19T22:20:31.193Z,100854.16
2023-02-19T22:23:01.993Z,100851.08
2023-02-19T22:25:32.470Z,100875.80
2023-02-19T22:28:05.787Z,100852.26
2023-02-19T22:30:36.323Z,100850.86
2023-02-19T22:33:07.183Z,100845.84
2023-02-19T22:35:37.695Z,100843.80
2023-02-19T22:38:08.263Z,100834.97
2023-02-19T22:40:38.709Z,100825.50
2023-02-19T22:43:09.210Z,100830.77
2023-02-19T22:45:39.801Z,100832.45
2023-02-19T22:48:11.637Z,100832.80
2023-02-19T22:50:42.491Z,100846.14
2023-02-19T22:53:12.970Z,100846.66
2023-02-19T22:55:43.466Z,100840.13
2023-02-19T22:58:13.972Z,100851.84
2023-02-19T23:00:44.422Z,100852.69
2023-02-19T23:03:15.094Z,100841.51
2023-02-19T23:05:46.769Z,100845.02
2023-02-19T23:08:17.241Z,100844.06
2023-02-19T23:10:47.705Z,100838.75
2023-02-19T23:13:18.233Z,100842.44
2023-02-19T23:15:48.728Z,100851.20
2023-02-19T23:18:19.390Z,100857.73
2023-02-19T23:20:49.870Z,100867.73
2023-02-19T23:23:20.339Z,100850.59
2023-02-19T23:25:50.848Z,100843.87
2023-02-19T23:28:21.384Z,100852.97
2023-02-19T23:30:52.033Z,100850.95
2023-02-19T23:33:22.622Z,100830.62
2023-02-19T23:35:53.070Z,100845.44
2023-02-19T23:38:24.973Z,100826.44
2023-02-19T23:40:59.131Z,100824.39
2023-02-19T23:43:35.568Z,100833.34
2023-02-19T23:46:08.052Z,100826.42
2023-02-19T23:48:40.226Z,100821.15
2023-02-19T23:51:14.702Z,100831.87
2023-02-19T23:53:49.530Z,100825.64
2023-02-19T23:56:31.231Z,100832.60
2023-02-19T23:59:09.285Z,100832.73
